Time;durP1;ratioP1;P1;durP2;ratioP2;P2;SDS_P1;SDS_P2;PMS_P1;PMS_P2;Temp;Humidity;BMP_temperature;BMP_pressure;BME280_temperature;BME280_humidity;BME280_pressure;Samples;Min_cycle;Max_cycle;Signal;HPM_P1;HPM_P2
2023/08/11 00:00:21;;;;;;;1.60;1.50;;;;;;;16.46;62.71;99356.00;5078270;28;42630;-85
2023/08/11 00:02:50;;;;;;;1.53;1.20;;;;;;;16.51;62.83;99368.03;5095080;28;38801;-85
2023/08/11 00:05:18;;;;;;;1.50;1.40;;;;;;;16.36;62.97;99350.53;5112247;28;40818;-85
2023/08/11 00:07:50;;;;;;;1.60;1.50;;;;;;;16.33;62.98;99348.09;5094948;28;41652;-85
2023/08/11 00:10:18;;;;;;;1.53;1.43;;;;;;;16.40;63.15;99372.53;5093315;28;41338;-85
2023/08/11 00:12:45;;;;;;;2.27;1.60;;;;;;;16.20;63.36;99349.16;5093423;28;40869;-85
2023/08/11 00:15:13;;;;;;;2.67;1.77;;;;;;;16.22;63.61;99357.91;5093863;28;40449;-85
2023/08/11 00:17:41;;;;;;;1.60;1.50;;;;;;;16.29;63.54;99378.72;5076739;28;41892;-86
2023/08/11 00:20:09;;;;;;;1.60;1.40;;;;;;;16.14;63.65;99362.03;5076761;28;41387;-86
2023/08/11 00:22:37;;;;;;;1.60;1.50;;;;;;;16.11;63.77;99370.28;5076486;28;40210;-87
2023/08/11 00:25:07;;;;;;;2.07;1.43;;;;;;;16.07;63.90;99368.81;5076886;28;44026;-85
2023/08/11 00:27:35;;;;;;;1.87;1.60;;;;;;;16.04;63.90;99366.41;5076483;28;43017;-86
2023/08/11 00:30:04;;;;;;;1.50;1.40;;;;;;;16.12;63.75;99387.16;5076826;28;41342;-86
2023/08/11 00:32:32;;;;;;;2.00;1.60;;;;;;;15.97;64.22;99366.97;5076516;28;38946;-87
2023/08/11 00:35:00;;;;;;;1.30;1.20;;;;;;;15.84;64.13;99347.50;5110119;28;41667;-86
2023/08/11 00:37:27;;;;;;;1.63;1.30;;;;;;;15.94;64.21;99365.41;5076394;28;41986;-86
2023/08/11 00:39:55;;;;;;;1.60;1.17;;;;;;;15.85;64.23;99363.41;5076838;28;41666;-86
2023/08/11 00:42:26;;;;;;;2.20;1.37;;;;;;;15.77;64.53;99341.78;5077247;28;39079;-86
2023/08/11 00:44:53;;;;;;;1.37;1.27;;;;;;;15.88;64.90;99360.50;5077606;28;40771;-86
2023/08/11 00:47:21;;;;;;;1.50;1.40;;;;;;;15.98;64.85;99376.69;5077431;28;42846;-86
2023/08/11 00:49:50;;;;;;;1.23;1.13;;;;;;;15.97;65.00;99380.31;5080056;28;41599;-85
2023/08/11 00:52:18;;;;;;;1.37;1.20;;;;;;;15.96;65.00;99379.47;5090995;28;40381;-85
2023/08/11 00:54:46;;;;;;;1.60;1.50;;;;;;;15.85;64.98;99363.41;5100905;28;41808;-86
2023/08/11 00:57:14;;;;;;;1.50;1.37;;;;;;;15.83;65.29;99378.69;5077673;28;42157;-86
2023/08/11 00:59:43;;;;;;;1.23;1.13;;;;;;;15.80;65.21;99365.59;5077404;28;42638;-85
2023/08/11 01:02:11;;;;;;;1.33;1.23;;;;;;;15.77;65.45;99381.84;5077573;28;41212;-86
2023/08/11 01:04:40;;;;;;;1.50;1.40;;;;;;;15.76;65.46;99377.47;5077597;28;40759;-86
2023/08/11 01:07:16;;;;;;;1.30;1.20;;;;;;;15.70;65.70;99359.25;5077416;28;42069;-87
2023/08/11 01:09:52;;;;;;;1.60;1.50;;;;;;;15.78;65.85;99380.88;5092740;28;41464;-86
2023/08/11 01:12:27;;;;;;;1.40;1.30;;;;;;;15.66;65.65;99373.78;5109903;28;39194;-85
2023/08/11 01:15:05;;;;;;;1.47;1.37;;;;;;;15.61;65.93;99359.91;5090225;28;41729;-86
2023/08/11 01:17:33;;;;;;;2.93;1.17;;;;;;;15.48;65.94;99346.59;5076019;28;42141;-86
2023/08/11 01:20:08;;;;;;;1.43;1.33;;;;;;;15.62;65.88;99369.63;5076189;28;41160;-86
2023/08/11 01:22:38;;;;;;;2.13;1.50;;;;;;;15.59;66.01;99380.53;5090457;28;40994;-86
2023/08/11 01:25:10;;;;;;;1.67;1.43;;;;;;;15.46;66.00;99360.06;5109577;28;42006;-86
2023/08/11 01:27:45;;;;;;;1.73;1.20;;;;;;;15.52;66.36;99372.13;5075538;28;41818;-86
2023/08/11 01:30:14;;;;;;;1.33;1.23;;;;;;;15.50;65.99;99376.72;5076222;28;41166;-86
2023/08/11 01:32:42;;;;;;;1.20;1.10;;;;;;;15.37;66.10;99366.09;5109920;28;39017;-86
2023/08/11 01:39:17;;;;;;;1.50;1.40;;;;;;;15.28;66.28;99376.59;5092779;28;41607;-86
2023/08/11 01:41:46;;;;;;;1.40;1.30;;;;;;;15.18;66.55;99355.09;5076992;28;42374;-86
2023/08/11 01:44:14;;;;;;;1.83;1.30;;;;;;;15.31;66.72;99382.56;5076793;28;38978;-86
2023/08/11 01:46:44;;;;;;;2.60;1.50;;;;;;;15.18;66.54;99371.09;5077109;28;40353;-86
2023/08/11 01:49:12;;;;;;;1.70;1.60;;;;;;;15.18;66.67;99379.09;5093581;28;43666;-86
2023/08/11 01:51:40;;;;;;;1.57;1.47;;;;;;;15.25;66.57;99388.34;5076331;28;41042;-86
2023/08/11 01:54:09;;;;;;;1.57;1.30;;;;;;;15.18;66.67;99386.25;5076873;28;40406;-86
2023/08/11 01:56:38;;;;;;;1.57;1.20;;;;;;;15.13;67.07;99380.38;5077002;28;40615;-85
2023/08/11 01:59:12;;;;;;;2.33;1.60;;;;;;;15.13;67.07;99378.56;5092608;28;43619;-86
2023/08/11 02:01:40;;;;;;;1.33;1.20;;;;;;;15.07;67.00;99369.22;5110955;28;42248;-85
2023/08/11 02:04:08;;;;;;;1.60;1.50;;;;;;;15.13;67.20;99389.25;5076512;28;39202;-86
2023/08/11 02:06:39;;;;;;;1.30;1.20;;;;;;;14.98;67.27;99379.69;5093710;28;40938;-86
2023/08/11 02:09:08;;;;;;;2.07;1.87;;;;;;;15.01;67.54;99384.78;5092285;28;42749;-86
2023/08/11 02:11:37;;;;;;;1.53;1.33;;;;;;;14.97;67.62;99375.31;5108589;28;43739;-86
2023/08/11 02:14:05;;;;;;;1.60;1.50;;;;;;;15.02;67.94;99391.84;5074968;28;39911;-86
2023/08/11 02:16:34;;;;;;;1.53;1.43;;;;;;;14.97;67.98;99377.97;5075224;28;40483;-85
2023/08/11 02:19:01;;;;;;;1.50;1.27;;;;;;;15.02;67.80;99391.84;5075107;28;41617;-86
2023/08/11 02:21:29;;;;;;;2.23;1.50;;;;;;;15.00;68.18;99385.75;5092333;28;41153;-86
2023/08/11 02:23:57;;;;;;;2.00;1.73;;;;;;;14.88;68.17;99378.63;5091893;28;39140;-86
2023/08/11 02:26:24;;;;;;;1.50;1.33;;;;;;;14.83;68.18;99370.13;5075144;28;41683;-86
2023/08/11 02:28:52;;;;;;;2.47;1.40;;;;;;;14.85;68.45;99363.69;5074877;28;42712;-85
2023/08/11 02:31:19;;;;;;;1.70;1.47;;;;;;;14.88;68.23;99378.63;5075261;28;42495;-86
2023/08/11 02:33:49;;;;;;;2.10;1.60;;;;;;;14.70;68.47;99348.84;5075133;28;39931;-86
2023/08/11 02:36:16;;;;;;;1.50;1.40;;;;;;;14.82;68.17;99381.75;5075228;28;40765;-86
2023/08/11 02:38:46;;;;;;;1.87;1.73;;;;;;;14.77;68.38;99367.88;5074972;28;41926;-85
2023/08/11 02:41:14;;;;;;;1.37;1.27;;;;;;;14.73;68.48;99365.44;5075417;28;41474;-85
2023/08/11 02:43:42;;;;;;;1.90;1.53;;;;;;;14.84;68.50;99387.81;5075784;28;41442;-86
2023/08/11 02:46:09;;;;;;;1.30;1.20;;;;;;;14.70;68.94;99364.81;5076052;28;43956;-85
2023/08/11 02:48:38;;;;;;;1.47;1.37;;;;;;;14.66;69.02;99363.31;5075701;28;42840;-86
2023/08/11 02:51:08;;;;;;;1.77;1.53;;;;;;;14.66;68.90;99358.00;5075848;28;42398;-86
2023/08/11 02:53:36;;;;;;;1.57;1.33;;;;;;;14.64;68.65;99360.78;5075112;28;38977;-86
2023/08/11 02:56:06;;;;;;;1.63;1.53;;;;;;;14.71;69.09;99374.53;5092593;28;40757;-86
2023/08/11 02:58:34;;;;;;;1.43;1.33;;;;;;;14.68;69.20;99383.59;5092352;28;41483;-85
2023/08/11 03:01:03;;;;;;;1.60;1.20;;;;;;;14.55;69.16;99361.44;5109312;28;41665;-85
2023/08/11 03:03:31;;;;;;;1.67;1.40;;;;;;;14.60;69.17;99375.25;5109327;28;40079;-86
2023/08/11 03:05:58;;;;;;;2.43;1.73;;;;;;;14.56;69.54;99365.81;5092363;28;42733;-84
2023/08/11 03:08:28;;;;;;;1.53;1.30;;;;;;;14.59;69.36;99373.56;5074764;28;42767;-85
2023/08/11 03:10:55;;;;;;;1.60;1.50;;;;;;;14.48;69.27;99370.81;5072237;28;42157;-87
2023/08/11 03:13:23;;;;;;;1.23;1.13;;;;;;;14.52;69.50;99377.63;5074094;28;38629;-85
2023/08/11 03:15:52;;;;;;;1.87;1.50;;;;;;;14.53;69.64;99379.34;5074317;28;40328;-86
2023/08/11 03:18:19;;;;;;;1.50;1.40;;;;;;;14.52;69.80;99388.28;5090546;28;42584;-85
2023/08/11 03:20:47;;;;;;;2.07;1.50;;;;;;;14.50;69.84;99384.03;5125463;27;43223;-86
2023/08/11 03:23:14;;;;;;;1.80;1.70;;;;;;;14.38;69.89;99370.56;5074333;28;39278;-85
2023/08/11 03:25:44;;;;;;;1.50;1.40;;;;;;;14.37;70.10;99373.34;5091082;28;41557;-86
2023/08/11 03:28:12;;;;;;;1.93;1.60;;;;;;;14.31;70.01;99363.13;5073747;28;43795;-85
2023/08/11 03:30:42;;;;;;;2.60;1.80;;;;;;;14.32;69.88;99364.81;5074062;28;42069;-86
2023/08/11 03:33:10;;;;;;;2.23;2.00;;;;;;;14.26;69.76;99370.56;5073733;28;41106;-85
2023/08/11 03:35:46;;;;;;;2.23;1.97;;;;;;;14.17;69.86;99356.09;5074195;28;40700;-86
2023/08/11 03:38:13;;;;;;;2.20;2.00;;;;;;;14.26;69.76;99370.56;5073388;28;42027;-85
2023/08/11 03:40:41;;;;;;;3.40;2.60;;;;;;;14.19;69.86;99363.97;5091141;28;42388;-85
2023/08/11 03:43:11;;;;;;;2.77;2.50;;;;;;;14.27;70.15;99372.28;5057931;28;38843;-85
2023/08/11 03:45:40;;;;;;;3.77;3.37;;;;;;;14.36;70.05;99395.59;5074872;28;40707;-85
2023/08/11 03:48:12;;;;;;;3.30;3.00;;;;;;;14.33;70.10;99387.84;5074940;28;43124;-84
2023/08/11 03:50:40;;;;;;;3.60;3.13;;;;;;;14.24;70.39;99386.66;5074904;28;41431;-84
2023/08/11 03:53:08;;;;;;;3.00;2.70;;;;;;;14.07;70.55;99349.69;5073965;28;39553;-85
2023/08/11 03:55:36;;;;;;;4.47;3.37;;;;;;;14.21;70.43;99372.72;5074344;28;43232;-85
2023/08/11 03:58:04;;;;;;;3.30;3.00;;;;;;;14.14;70.44;99374.06;5074411;28;41631;-85
2023/08/11 04:00:36;;;;;;;4.23;3.40;;;;;;;14.21;70.39;99384.22;5074714;28;42248;-85
2023/08/11 04:03:10;;;;;;;3.43;3.13;;;;;;;14.20;70.54;99379.84;5074854;28;39197;-85
2023/08/11 04:05:37;;;;;;;2.80;2.30;;;;;;;14.28;70.49;99400.63;5075092;28;40850;-86
2023/08/11 04:08:05;;;;;;;4.10;2.47;;;;;;;14.17;70.55;99387.19;5091066;28;41674;-85
2023/08/11 04:10:34;;;;;;;2.53;2.33;;;;;;;14.13;70.36;99391.00;5080211;28;42240;-85
2023/08/11 04:13:02;;;;;;;2.70;2.50;;;;;;;14.10;70.80;99380.56;5088845;28;39093;-84
2023/08/11 04:15:31;;;;;;;2.50;2.30;;;;;;;14.13;70.78;99391.88;5095464;28;43170;-85
2023/08/11 04:18:00;;;;;;;1.97;1.87;;;;;;;14.09;70.87;99389.53;5073130;28;42274;-85
2023/08/11 04:20:28;;;;;;;1.73;1.63;;;;;;;14.10;70.97;99391.22;5090255;28;44418;-85
2023/08/11 04:22:55;;;;;;;2.03;1.80;;;;;;;14.09;70.87;99389.53;5093971;28;41208;-85
2023/08/11 04:25:24;;;;;;;2.07;1.87;;;;;;;14.09;70.87;99376.22;5076951;28;41702;-85
2023/08/11 04:27:51;;;;;;;2.10;1.90;;;;;;;14.18;70.75;99404.88;5076524;28;42005;-85
2023/08/11 04:30:19;;;;;;;1.83;1.63;;;;;;;14.19;70.80;99403.94;5076671;28;41414;-85
2023/08/11 04:32:50;;;;;;;2.10;1.97;;;;;;;14.21;70.57;99404.69;5076712;28;38769;-85
2023/08/11 04:35:19;;;;;;;1.67;1.57;;;;;;;14.11;71.04;99388.44;5076687;28;41094;-84
2023/08/11 04:37:49;;;;;;;2.60;2.27;;;;;;;14.15;71.25;99394.44;5093211;28;41977;-84
2023/08/11 04:40:19;;;;;;;1.80;1.70;;;;;;;14.16;70.68;99391.66;5077571;28;41258;-84
2023/08/11 04:42:49;;;;;;;2.33;1.80;;;;;;;14.22;71.00;99401.03;5077899;28;39734;-84
2023/08/11 04:45:21;;;;;;;2.43;2.03;;;;;;;14.31;70.74;99395.09;5077699;28;40626;-84
2023/08/11 04:47:49;;;;;;;2.33;2.13;;;;;;;14.38;70.87;99401.69;5077578;28;43030;-84
2023/08/11 04:50:22;;;;;;;2.20;2.00;;;;;;;14.45;70.81;99396.84;5091841;28;42215;-86
2023/08/11 04:52:54;;;;;;;2.70;2.47;;;;;;;14.55;70.82;99404.06;5077483;28;38897;-86
2023/08/11 04:55:22;;;;;;;3.07;2.77;;;;;;;14.64;70.84;99403.41;5094705;28;41645;-86
2023/08/11 04:57:49;;;;;;;3.57;2.43;;;;;;;14.68;71.13;99393.41;5093898;28;43984;-85
2023/08/11 05:00:17;;;;;;;3.13;2.83;;;;;;;14.80;70.90;99402.34;5077429;28;41623;-85
2023/08/11 05:02:45;;;;;;;2.30;2.10;;;;;;;14.88;70.99;99405.31;5077310;28;38835;-86
2023/08/11 05:05:13;;;;;;;2.40;2.20;;;;;;;14.99;70.74;99405.38;5077249;28;40693;-86
2023/08/11 05:07:43;;;;;;;2.43;2.23;;;;;;;15.07;70.91;99405.72;5077142;28;41673;-86
2023/08/11 05:10:10;;;;;;;3.30;2.37;;;;;;;15.16;70.97;99405.03;5074862;28;41084;-86
2023/08/11 05:12:38;;;;;;;2.70;2.40;;;;;;;15.25;70.69;99414.19;5075901;28;40265;-85
2023/08/11 05:15:06;;;;;;;3.47;2.37;;;;;;;15.41;70.96;99420.97;5075972;28;40332;-85
2023/08/11 05:17:34;;;;;;;2.87;2.67;;;;;;;15.41;70.68;99410.28;5075582;28;41915;-84
2023/08/11 05:20:06;;;;;;;2.70;2.50;;;;;;;15.58;71.26;99426.94;5092955;28;42286;-85
2023/08/11 05:22:34;;;;;;;3.27;2.60;;;;;;;15.67;70.75;99431.56;5110083;28;39974;-85
2023/08/11 05:25:05;;;;;;;2.80;2.60;;;;;;;15.76;71.05;99420.19;5094132;28;42677;-85
2023/08/11 05:27:33;;;;;;;3.43;3.13;;;;;;;15.76;71.41;99414.84;5092328;28;43142;-85
2023/08/11 05:30:00;;;;;;;3.30;3.00;;;;;;;15.84;72.10;99417.78;5075939;28;42498;-85
2023/08/11 05:32:28;;;;;;;5.03;3.30;;;;;;;15.96;72.44;99416.88;5092799;28;39746;-84
2023/08/11 05:34:55;;;;;;;3.57;2.80;;;;;;;15.99;72.52;99405.09;5092770;28;42512;-85
2023/08/11 05:37:24;;;;;;;4.23;3.00;;;;;;;16.10;72.04;99403.31;5092468;28;41613;-85
2023/08/11 05:39:53;;;;;;;3.20;2.70;;;;;;;16.17;71.76;99404.56;5075734;28;41585;-85
2023/08/11 05:42:23;;;;;;;3.53;2.83;;;;;;;16.32;71.51;99412.38;5093311;28;39001;-84
2023/08/11 05:44:51;;;;;;;4.07;3.33;;;;;;;16.37;71.88;99415.53;5093996;28;42578;-85
2023/08/11 05:47:19;;;;;;;3.43;2.53;;;;;;;16.46;72.31;99404.13;5076328;28;42963;-85
2023/08/11 05:49:47;;;;;;;5.90;3.00;;;;;;;16.53;71.95;99400.00;5076569;28;41165;-85
2023/08/11 05:52:14;;;;;;;4.57;2.83;;;;;;;16.84;71.61;99410.00;5076274;28;40037;-86
2023/08/11 05:54:42;;;;;;;3.47;3.00;;;;;;;17.08;70.83;99415.22;5093458;28;41708;-84
2023/08/11 05:57:09;;;;;;;4.43;2.90;;;;;;;17.22;70.58;99419.47;5076272;28;41674;-85
2023/08/11 05:59:39;;;;;;;4.50;3.10;;;;;;;17.28;70.93;99413.63;5068920;28;40993;-88
2023/08/11 06:02:06;;;;;;;3.23;2.70;;;;;;;17.34;70.62;99413.13;5053874;28;41956;-90
2023/08/11 06:04:34;;;;;;;4.03;2.80;;;;;;;17.43;70.65;99415.03;5056867;28;40535;-89
2023/08/11 06:07:01;;;;;;;2.93;2.57;;;;;;;17.54;70.40;99414.19;5092833;28;42852;-88
2023/08/11 06:09:30;;;;;;;3.07;2.83;;;;;;;17.66;70.54;99412.34;5074176;28;43676;-86
2023/08/11 06:11:57;;;;;;;4.07;2.80;;;;;;;17.79;70.76;99424.59;5067809;28;40073;-91
2023/08/11 06:14:25;;;;;;;3.80;3.00;;;;;;;17.90;70.20;99426.38;5053189;28;42052;-88
2023/08/11 06:16:54;;;;;;;3.40;2.63;;;;;;;17.91;70.34;99402.16;5074474;28;42712;-88
2023/08/11 06:19:23;;;;;;;3.20;2.90;;;;;;;18.12;69.93;99409.34;5074458;28;41995;-88
2023/08/11 06:21:50;;;;;;;3.53;3.23;;;;;;;18.40;69.60;99429.31;5074376;28;40325;-82
2023/08/11 06:24:18;;;;;;;3.00;2.63;;;;;;;18.54;69.37;99429.81;5070859;28;41659;-83
2023/08/11 06:26:45;;;;;;;2.73;2.53;;;;;;;18.72;69.16;99430.06;5070705;28;42482;-79
2023/08/11 06:29:13;;;;;;;4.40;2.93;;;;;;;18.91;69.00;99430.19;5071130;28;42019;-88
2023/08/11 06:31:42;;;;;;;4.07;2.97;;;;;;;19.00;68.17;99424.00;5054223;28;38800;-88
2023/08/11 06:34:11;;;;;;;4.20;2.87;;;;;;;19.17;67.50;99425.19;5084231;28;42623;-82
2023/08/11 06:36:39;;;;;;;2.83;2.50;;;;;;;19.51;66.69;99412.31;5092309;28;42730;-88
2023/08/11 06:39:06;;;;;;;3.80;3.03;;;;;;;20.39;64.54;99447.19;5073152;28;41248;-81
2023/08/11 06:41:34;;;;;;;3.13;2.83;;;;;;;21.43;60.99;99478.47;5092056;28;40738;-83
2023/08/11 06:44:01;;;;;;;2.57;2.37;;;;;;;22.09;58.94;99478.22;5092566;28;41714;-83
2023/08/11 06:46:29;;;;;;;2.97;2.50;;;;;;;22.06;59.15;99456.94;5075596;28;41521;-83
2023/08/11 06:48:56;;;;;;;4.27;2.93;;;;;;;21.95;59.49;99469.78;5091073;28;43251;-85
2023/08/11 06:51:25;;;;;;;2.97;2.67;;;;;;;21.73;60.17;99466.53;5075386;28;39606;-85
2023/08/11 06:53:53;;;;;;;4.13;3.17;;;;;;;21.71;60.21;99479.31;5091093;28;42183;-82
2023/08/11 06:56:20;;;;;;;3.23;2.23;;;;;;;21.65;60.68;99473.66;5092017;28;42964;-86
2023/08/11 06:58:48;;;;;;;2.87;2.67;;;;;;;21.55;60.99;99462.09;5090614;28;41452;-82
2023/08/11 07:01:17;;;;;;;3.07;2.80;;;;;;;21.50;61.41;99454.47;5092891;28;40853;-84
2023/08/11 07:03:45;;;;;;;2.40;2.20;;;;;;;21.53;61.46;99464.94;5074145;28;40839;-84
2023/08/11 07:06:12;;;;;;;3.23;2.47;;;;;;;21.59;61.13;99464.34;5091549;28;43054;-85
2023/08/11 07:08:55;;;;;;;2.77;2.57;;;;;;;21.67;61.18;99475.19;5074396;28;41582;-82
2023/08/11 07:11:23;;;;;;;2.90;2.60;;;;;;;21.88;60.87;99475.75;5074330;28;39519;-81
2023/08/11 07:13:50;;;;;;;3.30;3.00;;;;;;;22.08;60.64;99471.13;5072875;28;40723;-79
2023/08/11 07:16:18;;;;;;;2.70;2.37;;;;;;;22.25;59.92;99477.53;5072622;28;43120;-83
2023/08/11 07:18:45;;;;;;;3.23;2.70;;;;;;;22.22;59.10;99467.03;5092236;28;42322;-84
2023/08/11 07:21:12;;;;;;;4.27;2.40;;;;;;;22.27;59.00;99463.84;5073637;28;38854;-84
2023/08/11 07:23:40;;;;;;;3.30;2.37;;;;;;;22.38;58.60;99469.84;5072831;28;40403;-87
2023/08/11 07:26:09;;;;;;;3.33;2.40;;;;;;;22.42;59.74;99451.50;5089764;28;43253;-88
2023/08/11 07:28:36;;;;;;;3.00;2.47;;;;;;;22.60;59.67;99463.13;5074001;28;41365;-80
2023/08/11 07:31:04;;;;;;;2.27;2.07;;;;;;;22.68;58.69;99457.78;5131963;27;40032;-85
2023/08/11 07:33:31;;;;;;;4.17;2.80;;;;;;;22.90;56.69;99481.59;5093243;28;41712;-83
2023/08/11 07:35:59;;;;;;;2.77;2.57;;;;;;;23.02;57.33;99478.63;5090237;28;41838;-82
2023/08/11 07:38:26;;;;;;;5.27;2.90;;;;;;;23.14;55.56;99485.44;5072340;28;41927;-83
2023/08/11 07:40:54;;;;;;;2.87;2.17;;;;;;;23.24;56.46;99476.22;5090504;28;41794;-79
2023/08/11 07:43:23;;;;;;;3.03;2.73;;;;;;;23.27;55.73;99470.47;5090586;28;42429;-82
2023/08/11 07:45:50;;;;;;;3.20;2.53;;;;;;;23.49;54.76;99481.75;5090686;28;42130;-81
2023/08/11 07:48:18;;;;;;;2.53;2.33;;;;;;;23.53;54.44;99475.88;5091501;28;42250;-83
2023/08/11 07:50:46;;;;;;;2.57;2.00;;;;;;;23.77;54.60;99490.47;5074546;28;39062;-83
2023/08/11 07:53:13;;;;;;;3.40;2.33;;;;;;;23.85;55.59;99477.00;5089785;28;42762;-82
2023/08/11 07:55:41;;;;;;;2.37;2.17;;;;;;;24.10;53.61;99505.81;5091590;28;42699;-89
2023/08/11 07:58:09;;;;;;;2.57;2.33;;;;;;;24.31;52.95;99495.38;5093541;28;42147;-87
2023/08/11 08:00:38;;;;;;;2.33;2.13;;;;;;;24.61;53.39;99498.41;5095725;28;39767;-81
2023/08/11 08:03:05;;;;;;;4.10;2.17;;;;;;;24.87;51.98;99503.63;5094571;28;42578;-85
2023/08/11 08:05:33;;;;;;;2.97;2.20;;;;;;;25.11;51.38;99500.91;5077096;28;41934;-83
2023/08/11 08:08:01;;;;;;;2.90;2.60;;;;;;;25.52;50.40;99512.50;5093237;28;41082;-81
2023/08/11 08:10:28;;;;;;;2.10;1.90;;;;;;;25.74;49.41;99517.16;5091932;28;39988;-80
2023/08/11 08:12:56;;;;;;;2.67;2.27;;;;;;;25.94;49.66;99516.75;5091844;28;41416;-82
2023/08/11 08:15:24;;;;;;;2.67;2.20;;;;;;;26.02;49.64;99517.53;5092644;28;42080;-81
2023/08/11 08:17:53;;;;;;;2.37;2.17;;;;;;;26.05;49.93;99500.91;5091841;28;42518;-80
2023/08/11 08:20:20;;;;;;;2.63;2.23;;;;;;;26.28;48.38;99538.13;5075934;28;39106;-82
2023/08/11 08:22:48;;;;;;;3.73;2.53;;;;;;;26.41;49.22;99527.50;5092002;28;43498;-80
2023/08/11 08:25:16;;;;;;;2.30;2.00;;;;;;;26.59;48.60;99530.75;5093965;28;42902;-84
2023/08/11 08:27:43;;;;;;;2.13;1.93;;;;;;;26.91;48.49;99528.81;5092177;28;42495;-82
2023/08/11 08:30:12;;;;;;;3.53;2.00;;;;;;;27.21;46.32;99521.53;5093688;28;40672;-82
2023/08/11 08:32:40;;;;;;;3.20;2.17;;;;;;;27.91;45.78;99541.00;5093287;28;42179;-86
2023/08/11 08:35:10;;;;;;;3.33;2.07;;;;;;;28.83;44.62;99549.38;5110319;28;41693;-79
2023/08/11 08:37:38;;;;;;;2.03;1.87;;;;;;;30.21;41.42;99555.72;5092804;28;42315;-83
2023/08/11 08:40:08;;;;;;;2.67;2.27;;;;;;;31.57;38.42;99570.81;5094402;28;39623;-80
2023/08/11 08:42:35;;;;;;;2.27;1.90;;;;;;;32.48;35.54;99599.00;5094300;28;41063;-84
2023/08/11 08:45:04;;;;;;;2.03;1.93;;;;;;;32.86;34.67;99595.41;5093702;28;43370;-86
2023/08/11 08:47:33;;;;;;;2.00;1.90;;;;;;;32.43;36.85;99574.13;5076623;28;41096;-87
2023/08/11 08:50:03;;;;;;;1.87;1.77;;;;;;;31.80;36.90;99567.63;5076874;28;39014;-84
2023/08/11 08:52:33;;;;;;;2.43;2.10;;;;;;;31.54;37.65;99567.66;5076145;28;41845;-83
2023/08/11 08:55:02;;;;;;;3.50;2.07;;;;;;;31.42;37.51;99571.03;5054168;28;42710;-88
2023/08/11 08:57:30;;;;;;;2.10;1.83;;;;;;;31.47;37.68;99573.16;5052685;28;43022;-82
2023/08/11 08:59:58;;;;;;;2.70;1.97;;;;;;;31.57;36.80;99562.59;5054506;28;40023;-87
2023/08/11 09:02:28;;;;;;;2.80;1.90;;;;;;;32.05;36.52;99570.47;5053123;28;40548;-85
2023/08/11 09:04:58;;;;;;;2.00;1.80;;;;;;;32.95;35.57;99574.88;5092096;28;41872;-90
2023/08/11 09:07:27;;;;;;;2.17;1.63;;;;;;;34.48;34.05;99559.31;5091624;28;43330;-84
2023/08/11 09:09:56;;;;;;;2.80;2.03;;;;;;;36.51;31.32;99572.38;5074311;28;39151;-87
2023/08/11 09:12:27;;;;;;;1.75;1.63;;;;;;;38.27;29.54;99591.25;5091275;28;41223;-81
2023/08/11 09:14:55;;;;;;;1.80;1.70;;;;;;;38.70;28.78;99602.28;5089409;28;44253;-89
2023/08/11 09:17:22;;;;;;;1.98;1.55;;;;;;;38.50;28.44;99593.72;5091657;28;42048;-88
2023/08/11 09:19:52;;;;;;;1.63;1.48;;;;;;;39.22;28.55;99593.34;5108811;28;41188;-89
2023/08/11 09:22:25;;;;;;;1.73;1.40;;;;;;;40.71;26.48;99586.44;5075311;28;41714;-88
2023/08/11 09:24:55;;;;;;;1.38;1.27;;;;;;;42.27;24.12;99595.75;5091538;28;42065;-86
2023/08/11 09:27:24;;;;;;;1.27;1.17;;;;;;;43.78;22.28;99619.19;5074534;28;41124;-84
2023/08/11 09:29:52;;;;;;;1.38;1.27;;;;;;;44.80;20.45;99619.63;5074180;28;38972;-84
2023/08/11 09:32:22;;;;;;;2.33;1.50;;;;;;;45.01;20.51;99609.78;5075100;28;40973;-87
2023/08/11 09:34:50;;;;;;;1.60;1.40;;;;;;;44.85;20.89;99602.78;5107524;28;41530;-83
2023/08/11 09:37:18;;;;;;;1.67;1.58;;;;;;;44.46;21.11;99586.28;5074330;28;41325;-90
2023/08/11 09:39:46;;;;;;;1.90;1.45;;;;;;;43.97;21.21;99573.50;5075513;28;38817;-87
2023/08/11 09:42:15;;;;;;;1.20;1.10;;;;;;;43.04;22.17;99553.47;5075014;28;42058;-82
2023/08/11 09:44:44;;;;;;;2.03;1.33;;;;;;;42.09;22.43;99576.88;5092893;28;42956;-79
2023/08/11 09:47:12;;;;;;;1.27;1.20;;;;;;;41.16;23.85;99545.94;5075364;28;41193;-81
2023/08/11 09:49:41;;;;;;;1.33;1.20;;;;;;;40.38;24.64;99567.44;5092282;28;39960;-84
2023/08/11 09:52:10;;;;;;;1.38;1.27;;;;;;;39.72;24.85;99569.88;5091687;28;42531;-84
2023/08/11 09:54:38;;;;;;;2.05;1.42;;;;;;;39.72;24.38;99553.25;5092468;28;42421;-82
2023/08/11 09:57:07;;;;;;;1.40;1.30;;;;;;;40.19;24.43;99570.69;5091724;28;41975;-90
2023/08/11 09:59:35;;;;;;;1.30;1.20;;;;;;;39.59;25.01;99568.41;5091011;28;39446;-86
2023/08/11 10:02:05;;;;;;;1.70;1.60;;;;;;;38.52;24.67;99572.16;5091782;28;42982;-80
2023/08/11 10:04:38;;;;;;;1.33;1.23;;;;;;;37.74;26.45;99551.25;5092514;28;42677;-85
2023/08/11 10:07:11;;;;;;;1.40;1.15;;;;;;;37.59;26.93;99556.53;5075002;28;41533;-86
2023/08/11 10:09:40;;;;;;;1.58;1.48;;;;;;;38.14;27.04;99550.97;5089733;28;40938;-83
2023/08/11 10:12:09;;;;;;;1.48;1.38;;;;;;;38.31;25.27;99564.75;5073588;28;42057;-83
2023/08/11 10:14:39;;;;;;;1.50;1.40;;;;;;;37.58;26.61;99544.66;5090162;28;42137;-82
2023/08/11 10:17:10;;;;;;;1.83;1.27;;;;;;;36.84;27.13;99552.31;5073586;28;41557;-82
2023/08/11 10:19:37;;;;;;;1.38;1.20;;;;;;;36.35;26.60;99559.38;5089351;28;38912;-81
2023/08/11 10:22:06;;;;;;;2.53;1.40;;;;;;;35.59;27.37;99502.59;5073392;28;40657;-83
2023/08/11 10:24:37;;;;;;;1.30;1.20;;;;;;;35.29;27.54;99531.13;5091088;28;42899;-81
2023/08/11 10:27:05;;;;;;;1.20;1.10;;;;;;;35.10;29.37;99526.81;5090321;28;41685;-81
2023/08/11 10:29:34;;;;;;;1.50;1.40;;;;;;;34.88;29.54;99523.75;5090901;28;39935;-81
2023/08/11 10:32:02;;;;;;;1.27;1.10;;;;;;;34.71;29.37;99532.94;5090353;28;41900;-83
2023/08/11 10:34:31;;;;;;;1.30;1.20;;;;;;;34.56;29.11;99533.38;5123868;27;43690;-81
2023/08/11 10:36:59;;;;;;;1.53;1.43;;;;;;;34.38;29.00;99511.41;5073030;28;41389;-82
2023/08/11 10:39:27;;;;;;;1.37;1.27;;;;;;;34.48;30.99;99515.28;5089880;28;41083;-83
2023/08/11 10:41:56;;;;;;;1.00;1.00;;;;;;;34.32;29.56;99518.69;5092187;28;41696;-80
2023/08/11 10:44:28;;;;;;;1.60;1.10;;;;;;;34.28;30.81;99511.97;5125620;27;43061;-80
2023/08/11 10:46:58;;;;;;;1.20;1.10;;;;;;;34.14;30.51;99505.78;5088990;28;42511;-82
2023/08/11 10:49:35;;;;;;;1.50;1.40;;;;;;;34.20;28.89;99504.88;5090228;28;39147;-85
2023/08/11 10:52:04;;;;;;;2.20;2.00;;;;;;;34.64;28.33;99526.69;5088390;28;41798;-80
2023/08/11 10:54:32;;;;;;;1.37;1.27;;;;;;;35.20;29.07;99520.69;5090680;28;43493;-80
2023/08/11 10:57:02;;;;;;;1.63;1.33;;;;;;;35.96;28.26;99525.19;5092876;28;20211;-81
2023/08/11 10:59:30;;;;;;;1.47;1.37;;;;;;;36.25;26.54;99523.31;5091457;28;40829;-80
2023/08/11 11:01:59;;;;;;;1.10;1.10;;;;;;;36.44;26.98;99533.06;5091133;28;41861;-84
2023/08/11 11:04:31;;;;;;;1.77;1.15;;;;;;;36.68;27.78;99529.09;5090631;28;41779;-81
2023/08/11 11:07:02;;;;;;;1.33;1.23;;;;;;;36.84;28.78;99499.84;5091002;28;41273;-85
2023/08/11 11:09:30;;;;;;;1.13;1.10;;;;;;;37.48;28.84;99514.09;5072934;28;40415;-81
2023/08/11 11:11:58;;;;;;;1.45;1.33;;;;;;;37.77;28.28;99509.28;5072956;28;41488;-81
2023/08/11 11:14:25;;;;;;;1.17;1.00;;;;;;;38.07;25.68;99530.94;5072025;28;41584;-82
2023/08/11 11:16:54;;;;;;;1.15;0.98;;;;;;;38.48;26.82;99521.16;5072856;28;41202;-82
2023/08/11 11:19:23;;;;;;;1.90;1.08;;;;;;;39.20;24.96;99529.03;5089329;28;39333;-82
2023/08/11 11:21:51;;;;;;;1.20;1.20;;;;;;;40.18;24.68;99529.34;5089513;28;40813;-81
2023/08/11 11:24:20;;;;;;;1.45;1.00;;;;;;;41.40;23.64;99540.59;5088844;28;43387;-81
2023/08/11 11:26:48;;;;;;;2.42;0.85;;;;;;;42.04;21.50;99562.97;5090741;28;42235;-83
2023/08/11 11:29:21;;;;;;;0.77;0.77;;;;;;;42.35;22.23;99546.13;5072172;28;38883;-82
2023/08/11 11:31:48;;;;;;;1.20;1.10;;;;;;;41.94;20.77;99557.44;5088314;28;41098;-82
2023/08/11 11:34:17;;;;;;;1.20;1.10;;;;;;;41.36;22.75;99548.66;5089112;28;42526;-80
2023/08/11 11:36:44;;;;;;;2.88;1.10;;;;;;;41.35;23.40;99533.09;5089436;28;42279;-81
2023/08/11 11:39:12;;;;;;;1.00;1.00;;;;;;;40.95;23.65;99527.53;5072332;28;38723;-82
2023/08/11 11:41:41;;;;;;;0.82;0.82;;;;;;;40.46;23.42;99508.59;5090511;28;40488;-82
2023/08/11 11:44:08;;;;;;;1.20;1.10;;;;;;;40.20;23.98;99516.84;5089463;28;42977;-85